createdAt,value
2023-02-18T00:00:29.256Z,7.08
2023-02-18T00:02:58.607Z,7.03
2023-02-18T00:05:28.563Z,7.03
2023-02-18T00:07:55.311Z,7.04
2023-02-18T00:10:21.999Z,7.02
2023-02-18T00:12:48.707Z,7.05
2023-02-18T00:15:15.504Z,7.09
2023-02-18T00:17:42.226Z,7.06
2023-02-18T00:20:09.358Z,7.09
2023-02-18T00:22:36.053Z,7.09
2023-02-18T00:25:02.755Z,7.08
2023-02-18T00:27:29.488Z,7.13
2023-02-18T00:29:56.316Z,7.12
2023-02-18T00:32:23.094Z,7.08
2023-02-18T00:34:49.866Z,7.07
2023-02-18T00:37:16.662Z,7.17
2023-02-18T00:39:44.281Z,7.14
2023-02-18T00:42:11.077Z,7.14
2023-02-18T00:44:37.804Z,7.12
2023-02-18T00:47:04.546Z,7.06
2023-02-18T00:49:31.629Z,7.06
2023-02-18T00:51:58.474Z,7.07
2023-02-18T00:54:25.200Z,7.11
2023-02-18T00:56:51.886Z,7.08
2023-02-18T00:59:18.566Z,7.04
2023-02-18T01:01:45.373Z,7.13
2023-02-18T01:04:12.457Z,7.12
2023-02-18T01:06:39.559Z,7.13
2023-02-18T01:09:06.507Z,7.15
2023-02-18T01:11:33.321Z,7.11
2023-02-18T01:14:00.058Z,7.13
2023-02-18T01:16:27.146Z,7.06
2023-02-18T01:18:53.983Z,7.08
2023-02-18T01:21:21.138Z,7.08
2023-02-18T01:23:47.865Z,7.07
2023-02-18T01:26:15.625Z,7.11
2023-02-18T01:28:42.348Z,7.04
2023-02-18T01:31:12.541Z,7.04
2023-02-18T01:33:39.584Z,7.08
2023-02-18T01:36:07.445Z,7.10
2023-02-18T01:38:34.414Z,7.05
2023-02-18T01:41:01.192Z,7.10
2023-02-18T01:43:28.004Z,7.06
2023-02-18T01:45:58.006Z,7.02
2023-02-18T01:48:39.668Z,7.01
2023-02-18T01:51:15.018Z,7.04
2023-02-18T01:53:52.967Z,7.06
2023-02-18T01:56:27.929Z,7.09
2023-02-18T01:58:56.996Z,7.07
2023-02-18T02:01:25.608Z,7.11
2023-02-18T02:03:52.528Z,7.09
2023-02-18T02:06:22.826Z,7.20
2023-02-18T02:08:51.869Z,7.10
2023-02-18T02:11:31.252Z,7.17
2023-02-18T02:14:22.182Z,7.13
2023-02-18T02:17:10.524Z,7.07
2023-02-18T02:20:11.886Z,7.04
2023-02-18T02:23:15.688Z,7.12
2023-02-18T02:26:19.560Z,7.10
2023-02-18T02:29:24.547Z,7.08
2023-02-18T02:32:29.878Z,7.09
2023-02-18T02:35:07.703Z,7.09
2023-02-18T02:37:34.324Z,7.17
2023-02-18T02:40:15.659Z,7.10
2023-02-18T02:43:05.552Z,7.04
2023-02-18T02:45:44.477Z,7.06
2023-02-18T02:48:49.140Z,7.04
2023-02-18T02:51:18.478Z,7.02
2023-02-18T02:53:45.249Z,7.03
2023-02-18T02:56:18.730Z,6.99
2023-02-18T02:58:47.964Z,6.95
2023-02-18T03:01:35.534Z,6.93
2023-02-18T03:04:13.994Z,6.86
2023-02-18T03:07:03.506Z,6.83
2023-02-18T03:09:48.468Z,6.78
2023-02-18T03:12:23.234Z,6.77
2023-02-18T03:15:11.152Z,6.70
2023-02-18T03:17:46.251Z,6.71
2023-02-18T03:20:26.597Z,6.75
2023-02-18T03:22:56.076Z,6.72
2023-02-18T03:25:24.361Z,6.67
2023-02-18T03:27:56.127Z,6.73
2023-02-18T03:30:27.368Z,6.78
2023-02-18T03:33:00.374Z,6.73
2023-02-18T03:35:27.947Z,6.78
2023-02-18T03:38:12.426Z,6.82
2023-02-18T03:40:39.269Z,6.79
2023-02-18T03:43:05.987Z,6.84
2023-02-18T03:45:32.652Z,6.85
2023-02-18T03:47:59.322Z,6.89
2023-02-18T03:50:26.061Z,6.83
2023-02-18T03:52:52.806Z,6.92
2023-02-18T03:55:19.534Z,6.90
2023-02-18T03:57:46.219Z,6.87
2023-02-18T04:00:13.513Z,6.86
2023-02-18T04:02:41.254Z,6.86
2023-02-18T04:05:08.920Z,6.86
2023-02-18T04:07:35.828Z,6.91
2023-02-18T04:10:02.592Z,6.91
2023-02-18T04:12:29.385Z,6.96
2023-02-18T04:14:56.099Z,7.04
2023-02-18T04:17:22.908Z,7.03
2023-02-18T04:19:49.597Z,7.10
2023-02-18T04:22:16.294Z,7.13
2023-02-18T04:24:43.099Z,7.09
2023-02-18T04:27:09.826Z,7.10
2023-02-18T04:29:36.603Z,7.06
2023-02-18T04:32:03.525Z,7.05
2023-02-18T04:34:30.203Z,7.10
2023-02-18T04:36:57.466Z,7.10
2023-02-18T04:39:24.739Z,7.15
2023-02-18T04:41:51.399Z,7.17
2023-02-18T04:44:18.032Z,7.18
2023-02-18T04:46:44.768Z,7.15
2023-02-18T04:49:11.454Z,7.11
2023-02-18T04:51:38.122Z,7.17
2023-02-18T04:54:05.111Z,7.20
2023-02-18T04:56:31.822Z,7.22
2023-02-18T04:58:58.476Z,7.29
2023-02-18T05:01:25.219Z,7.23
2023-02-18T05:03:51.929Z,7.21
2023-02-18T05:06:18.685Z,7.18
2023-02-18T05:08:45.403Z,7.13
2023-02-18T05:11:12.099Z,7.07
2023-02-18T05:13:39.329Z,7.08
2023-02-18T05:16:07.819Z,7.07
2023-02-18T05:18:34.967Z,7.07
2023-02-18T05:21:01.734Z,7.03
2023-02-18T05:23:28.556Z,6.95
2023-02-18T05:25:55.805Z,6.90
2023-02-18T05:28:23.134Z,6.89
2023-02-18T05:30:50.089Z,6.84
2023-02-18T05:33:16.848Z,6.80
2023-02-18T05:35:43.501Z,6.75
2023-02-18T05:38:10.218Z,6.74
2023-02-18T05:40:37.569Z,6.77
2023-02-18T05:43:04.704Z,6.83
2023-02-18T05:45:31.762Z,6.76
2023-02-18T05:47:58.476Z,6.79
2023-02-18T05:50:25.198Z,6.74
2023-02-18T05:52:51.978Z,6.76
2023-02-18T05:55:21.953Z,6.75
2023-02-18T05:57:48.704Z,6.78
2023-02-18T06:00:15.838Z,6.68
2023-02-18T06:02:43.031Z,6.73
2023-02-18T06:05:10.456Z,6.71
2023-02-18T06:07:37.322Z,6.69
2023-02-18T06:10:05.629Z,6.73
2023-02-18T06:12:32.491Z,6.73
2023-02-18T06:14:59.198Z,6.69
2023-02-18T06:17:26.027Z,6.70
2023-02-18T06:19:52.817Z,6.72
2023-02-18T06:22:19.566Z,6.69
2023-02-18T06:24:46.385Z,6.65
2023-02-18T06:27:13.128Z,6.63
2023-02-18T06:29:39.841Z,6.58
2023-02-18T06:32:06.619Z,6.60
2023-02-18T06:34:33.533Z,6.63
2023-02-18T06:37:01.395Z,6.68
2023-02-18T06:39:28.253Z,6.66
2023-02-18T06:41:55.021Z,6.60
2023-02-18T06:44:21.792Z,6.57
2023-02-18T06:46:48.569Z,6.55
2023-02-18T06:49:15.310Z,6.65
2023-02-18T06:51:42.071Z,6.57
2023-02-18T06:54:08.799Z,6.56
2023-02-18T06:56:35.437Z,6.59
2023-02-18T06:59:02.147Z,6.53
2023-02-18T07:01:28.853Z,6.50
2023-02-18T07:03:56.079Z,6.49
2023-02-18T07:06:22.747Z,6.47
2023-02-18T07:08:49.589Z,6.49
2023-02-18T07:11:16.748Z,6.38
2023-02-18T07:13:43.382Z,6.41
2023-02-18T07:16:10.604Z,6.29
2023-02-18T07:18:37.580Z,6.37
2023-02-18T07:21:04.431Z,6.33
2023-02-18T07:23:31.174Z,6.33
2023-02-18T07:26:12.865Z,6.31
2023-02-18T07:28:40.215Z,6.22
2023-02-18T07:31:10.749Z,6.25
2023-02-18T07:33:37.574Z,6.32
2023-02-18T07:36:04.737Z,6.31
2023-02-18T07:38:31.751Z,6.22
2023-02-18T07:40:58.809Z,6.26
2023-02-18T07:43:25.643Z,6.25
2023-02-18T07:45:52.472Z,6.18
2023-02-18T07:48:19.257Z,6.20
2023-02-18T07:50:46.583Z,6.28
2023-02-18T07:53:15.172Z,6.27
2023-02-18T07:55:50.723Z,6.18
2023-02-18T07:58:28.274Z,6.24
2023-02-18T08:00:55.610Z,6.31
2023-02-18T08:03:25.503Z,6.31
2023-02-18T08:05:52.944Z,6.34
2023-02-18T08:08:25.253Z,6.37
2023-02-18T08:10:53.867Z,6.44
2023-02-18T08:13:20.581Z,6.42
2023-02-18T08:15:47.566Z,6.42
2023-02-18T08:18:18.863Z,6.50
2023-02-18T08:20:47.275Z,6.39
2023-02-18T08:23:14.910Z,6.36
2023-02-18T08:25:46.284Z,6.34
2023-02-18T08:28:13.320Z,6.31
2023-02-18T08:30:45.106Z,6.35
2023-02-18T08:33:11.885Z,6.30
2023-02-18T08:35:40.600Z,6.26
2023-02-18T08:38:07.336Z,6.30
2023-02-18T08:40:34.321Z,6.27
2023-02-18T08:43:00.989Z,6.25
2023-02-18T08:45:27.731Z,6.34
2023-02-18T08:48:17.902Z,6.26
2023-02-18T08:50:41.253Z,6.33
2023-02-18T08:53:08.091Z,6.42
2023-02-18T08:55:35.339Z,6.48
2023-02-18T08:58:04.229Z,6.47
2023-02-18T09:00:30.882Z,6.59
2023-02-18T09:02:57.571Z,6.70
2023-02-18T09:05:24.295Z,6.84
2023-02-18T09:07:50.971Z,6.78
2023-02-18T09:10:17.908Z,6.78
2023-02-18T09:12:44.563Z,6.71
2023-02-18T09:15:11.441Z,6.74
2023-02-18T09:17:38.149Z,6.71
2023-02-18T09:20:06.096Z,6.66
2023-02-18T09:22:32.894Z,6.60
2023-02-18T09:24:59.778Z,6.44
2023-02-18T09:27:26.504Z,6.45
2023-02-18T09:29:53.246Z,6.31
2023-02-18T09:32:32.608Z,6.12
2023-02-18T09:35:03.140Z,6.00
2023-02-18T09:37:30.042Z,6.07
2023-02-18T09:39:56.850Z,5.92
2023-02-18T09:42:31.195Z,5.94
2023-02-18T09:45:07.230Z,5.79
2023-02-18T09:47:42.668Z,5.82
2023-02-18T09:50:32.472Z,5.84
2023-02-18T09:53:01.273Z,5.81
2023-02-18T09:55:39.309Z,5.81
2023-02-18T09:58:15.898Z,5.86
2023-02-18T10:00:47.405Z,5.85
2023-02-18T10:03:19.158Z,5.85
2023-02-18T10:05:54.942Z,6.27
2023-02-18T10:08:26.553Z,5.83
2023-02-18T10:10:53.274Z,5.85
2023-02-18T10:13:23.802Z,5.98
2023-02-18T10:15:51.695Z,5.90
2023-02-18T10:18:41.580Z,5.90
2023-02-18T10:21:16.431Z,6.15
2023-02-18T10:23:53.544Z,6.33
2023-02-18T10:26:21.296Z,6.26
2023-02-18T10:28:48.398Z,6.15
2023-02-18T10:31:25.711Z,5.99
2023-02-18T10:34:00.445Z,6.05
2023-02-18T10:36:41.966Z,6.27
2023-02-18T10:39:15.560Z,6.10
2023-02-18T10:41:51.401Z,6.17
2023-02-18T10:44:29.677Z,6.28
2023-02-18T10:47:26.738Z,6.18
2023-02-18T10:50:00.951Z,6.17
2023-02-18T10:52:33.024Z,6.35
2023-02-18T10:55:06.400Z,6.54
2023-02-18T10:57:33.592Z,6.22
2023-02-18T11:00:12.215Z,6.09
2023-02-18T11:02:40.009Z,6.31
2023-02-18T11:05:19.140Z,6.69
2023-02-18T11:07:50.216Z,6.58
2023-02-18T11:10:22.534Z,6.78
2023-02-18T11:12:52.147Z,6.72
2023-02-18T11:15:19.005Z,6.56
2023-02-18T11:17:48.989Z,6.51
2023-02-18T11:20:24.820Z,6.53
2023-02-18T11:22:52.046Z,6.58
2023-02-18T11:25:27.302Z,6.45
2023-02-18T11:28:00.447Z,6.27
2023-02-18T11:30:40.495Z,6.16
2023-02-18T11:33:08.703Z,5.97
2023-02-18T11:35:36.298Z,5.93
2023-02-18T11:38:15.448Z,6.05
2023-02-18T11:40:42.162Z,6.31
2023-02-18T11:43:15.867Z,6.38
2023-02-18T11:45:42.917Z,6.31
2023-02-18T11:48:18.647Z,6.47
2023-02-18T11:50:50.160Z,6.48
2023-02-18T11:53:29.979Z,6.54
2023-02-18T11:55:59.798Z,6.15
2023-02-18T11:58:28.052Z,6.10
2023-02-18T12:00:59.003Z,6.07
2023-02-18T12:03:35.326Z,6.00
2023-02-18T12:06:12.096Z,5.68
2023-02-18T12:09:05.788Z,5.74
2023-02-18T12:11:39.225Z,5.72
2023-02-18T12:14:14.224Z,5.81
2023-02-18T12:16:59.225Z,5.90
2023-02-18T12:19:45.899Z,5.77
2023-02-18T12:22:26.924Z,5.77
2023-02-18T12:25:02.701Z,5.71
2023-02-18T12:27:50.416Z,5.65
2023-02-18T12:30:40.247Z,5.69
2023-02-18T12:33:29.444Z,5.75
2023-02-18T12:36:19.488Z,5.57
2023-02-18T12:39:02.319Z,5.48
2023-02-18T12:41:35.032Z,5.40
2023-02-18T12:44:10.738Z,5.27
2023-02-18T12:47:01.177Z,5.44
2023-02-18T12:49:39.579Z,5.48
2023-02-18T12:52:09.041Z,5.28
2023-02-18T12:55:15.279Z,5.32
2023-02-18T12:58:00.202Z,5.38
2023-02-18T13:00:51.951Z,5.30
2023-02-18T13:03:40.280Z,5.22
2023-02-18T13:06:31.153Z,5.34
2023-02-18T13:09:25.597Z,5.49
2023-02-18T13:12:06.213Z,5.56
2023-02-18T13:14:50.079Z,5.63
2023-02-18T13:17:20.041Z,5.51
2023-02-18T13:19:50.650Z,5.36
2023-02-18T13:22:20.903Z,5.51
2023-02-18T13:24:49.600Z,5.39
2023-02-18T13:27:28.476Z,5.68
2023-02-18T13:30:26.572Z,5.42
2023-02-18T13:33:18.047Z,5.48
2023-02-18T13:35:54.932Z,5.19
2023-02-18T13:38:54.379Z,5.49
2023-02-18T13:41:21.741Z,5.77
2023-02-18T13:43:50.187Z,5.83
2023-02-18T13:46:19.873Z,6.04
2023-02-18T13:48:53.125Z,5.40
2023-02-18T13:51:48.804Z,5.43
2023-02-18T13:54:28.241Z,5.81
2023-02-18T13:57:06.944Z,5.62
2023-02-18T13:59:39.941Z,5.67
2023-02-18T14:02:25.348Z,5.91
2023-02-18T14:04:55.737Z,6.10
2023-02-18T14:07:33.443Z,6.15
2023-02-18T14:10:05.393Z,5.96
2023-02-18T14:12:41.397Z,5.99
2023-02-18T14:15:40.533Z,5.81
2023-02-18T14:18:13.416Z,6.04
2023-02-18T14:20:39.987Z,6.02
2023-02-18T14:23:36.094Z,5.95
2023-02-18T14:26:13.784Z,5.95
2023-02-18T14:28:44.883Z,6.00
2023-02-18T14:31:41.601Z,5.85
2023-02-18T14:34:23.629Z,5.70
2023-02-18T14:37:27.937Z,5.79
2023-02-18T14:40:06.772Z,5.76
2023-02-18T14:42:39.472Z,5.80
2023-02-18T14:45:52.313Z,5.66
2023-02-18T14:49:04.375Z,5.64
2023-02-18T14:51:34.092Z,5.56
2023-02-18T14:54:13.813Z,5.60
2023-02-18T14:56:51.409Z,5.65
2023-02-18T14:59:19.950Z,5.72
2023-02-18T15:01:47.861Z,5.71
2023-02-18T15:04:15.821Z,5.70
2023-02-18T15:06:42.677Z,5.70
2023-02-18T15:09:18.216Z,5.68
2023-02-18T15:11:51.132Z,5.48
2023-02-18T15:14:21.532Z,5.61
2023-02-18T15:16:49.596Z,5.70
2023-02-18T15:19:19.572Z,5.57
2023-02-18T15:21:49.146Z,5.61
2023-02-18T15:24:25.774Z,5.56
2023-02-18T15:26:55.828Z,5.53
2023-02-18T15:29:25.539Z,5.61
2023-02-18T15:31:55.331Z,5.50
2023-02-18T15:34:37.715Z,5.48
2023-02-18T15:37:07.541Z,5.38
2023-02-18T15:39:35.312Z,5.39
2023-02-18T15:42:17.133Z,5.28
2023-02-18T15:44:55.263Z,5.18
2023-02-18T15:47:22.998Z,5.14
2023-02-18T15:49:54.228Z,5.15
2023-02-18T15:52:30.821Z,5.17
2023-02-18T15:55:03.705Z,5.31
2023-02-18T15:57:31.131Z,5.35
2023-02-18T16:00:05.610Z,5.39
2023-02-18T16:02:33.375Z,5.36
2023-02-18T16:05:05.081Z,5.38
2023-02-18T16:07:48.820Z,5.28
2023-02-18T16:10:24.906Z,5.31
2023-02-18T16:13:00.386Z,5.20
2023-02-18T16:15:30.682Z,5.22
2023-02-18T16:17:59.175Z,5.14
2023-02-18T16:20:37.954Z,5.19
2023-02-18T16:23:14.849Z,5.07
2023-02-18T16:25:48.741Z,5.24
2023-02-18T16:28:31.544Z,5.17
2023-02-18T16:30:58.958Z,5.12
2023-02-18T16:33:25.757Z,5.07
2023-02-18T16:35:52.615Z,5.07
2023-02-18T16:38:24.501Z,5.11
2023-02-18T16:40:53.470Z,5.09
2023-02-18T16:43:22.821Z,5.15
2023-02-18T16:45:57.693Z,5.06
2023-02-18T16:48:37.348Z,5.05
2023-02-18T16:51:09.678Z,5.06
2023-02-18T16:53:36.565Z,4.97
2023-02-18T16:56:03.513Z,5.00
2023-02-18T16:58:30.271Z,5.09
2023-02-18T17:00:57.673Z,5.04
2023-02-18T17:03:24.363Z,5.14
2023-02-18T17:05:51.115Z,5.04
2023-02-18T17:08:27.472Z,5.15
2023-02-18T17:10:57.447Z,5.11
2023-02-18T17:13:27.502Z,5.14
2023-02-18T17:15:55.946Z,5.11
2023-02-18T17:18:24.016Z,5.13
2023-02-18T17:20:52.995Z,5.10
2023-02-18T17:23:23.150Z,5.15
2023-02-18T17:25:52.024Z,5.11
2023-02-18T17:28:19.420Z,5.02
2023-02-18T17:30:49.508Z,5.00
2023-02-18T17:33:18.622Z,4.87
2023-02-18T17:35:46.077Z,4.80
2023-02-18T17:38:14.693Z,4.77
2023-02-18T17:40:41.530Z,4.73
2023-02-18T17:43:13.764Z,4.63
2023-02-18T17:45:45.532Z,4.72
2023-02-18T17:48:12.224Z,4.68
2023-02-18T17:50:38.861Z,4.82
2023-02-18T17:53:05.549Z,4.82
2023-02-18T17:55:35.487Z,4.85
2023-02-18T17:58:02.305Z,4.89
2023-02-18T18:00:39.198Z,4.86
2023-02-18T18:03:06.253Z,4.93
2023-02-18T18:05:35.973Z,4.79
2023-02-18T18:08:05.212Z,4.82
2023-02-18T18:10:39.058Z,4.83
2023-02-18T18:13:09.779Z,4.87
2023-02-18T18:15:39.630Z,4.91
2023-02-18T18:18:06.818Z,4.84
2023-02-18T18:20:35.255Z,4.88
2023-02-18T18:23:04.799Z,4.93
2023-02-18T18:25:41.405Z,4.84
2023-02-18T18:28:08.886Z,4.88
2023-02-18T18:30:40.911Z,4.88
2023-02-18T18:33:18.251Z,4.79
2023-02-18T18:35:47.585Z,4.82
2023-02-18T18:38:14.669Z,4.90
2023-02-18T18:40:41.650Z,4.92
2023-02-18T18:43:16.912Z,4.84
2023-02-18T18:45:43.729Z,4.90
2023-02-18T18:48:10.380Z,4.95
2023-02-18T18:50:41.909Z,4.93
2023-02-18T18:53:29.946Z,4.94
2023-02-18T18:56:02.759Z,4.85
2023-02-18T18:58:29.603Z,4.88
2023-02-18T19:00:59.164Z,4.88
2023-02-18T19:03:27.938Z,4.89
2023-02-18T19:05:55.428Z,4.89
2023-02-18T19:08:22.429Z,5.01
2023-02-18T19:10:57.047Z,4.98
2023-02-18T19:13:29.957Z,4.93
2023-02-18T19:16:26.489Z,4.97
2023-02-18T19:18:54.213Z,4.97
2023-02-18T19:21:20.976Z,5.00
2023-02-18T19:23:47.846Z,5.01
2023-02-18T19:26:16.610Z,4.97
2023-02-18T19:28:44.503Z,4.88
2023-02-18T19:31:11.799Z,4.87
2023-02-18T19:33:39.651Z,4.91
2023-02-18T19:36:08.873Z,4.96
2023-02-18T19:38:35.674Z,4.89
2023-02-18T19:41:20.801Z,4.94
2023-02-18T19:43:47.608Z,4.96
2023-02-18T19:46:17.091Z,4.91
2023-02-18T19:48:47.148Z,4.87
2023-02-18T19:51:14.585Z,4.85
2023-02-18T19:53:41.271Z,4.85
2023-02-18T19:56:08.125Z,4.84
2023-02-18T19:58:36.197Z,4.79
2023-02-18T20:01:03.502Z,4.88
2023-02-18T20:03:30.204Z,4.76
2023-02-18T20:05:56.841Z,4.82
2023-02-18T20:08:23.533Z,4.84
2023-02-18T20:10:59.594Z,4.78
2023-02-18T20:13:26.923Z,4.75
2023-02-18T20:15:53.696Z,4.68
2023-02-18T20:18:20.412Z,4.69
2023-02-18T20:20:48.948Z,4.75
2023-02-18T20:23:15.948Z,4.71
2023-02-18T20:25:42.670Z,4.73
2023-02-18T20:28:10.255Z,4.70
2023-02-18T20:30:36.956Z,4.66
2023-02-18T20:33:03.972Z,4.64
2023-02-18T20:35:30.656Z,4.62
2023-02-18T20:37:57.336Z,4.57
2023-02-18T20:40:24.370Z,4.52
2023-02-18T20:42:51.025Z,4.53
2023-02-18T20:45:17.822Z,4.43
2023-02-18T20:47:44.604Z,4.37
2023-02-18T20:50:11.303Z,4.34
2023-02-18T20:52:38.155Z,4.34
2023-02-18T20:55:05.022Z,4.28
2023-02-18T20:57:31.694Z,4.28
2023-02-18T20:59:58.466Z,4.24
2023-02-18T21:02:25.629Z,4.25
2023-02-18T21:04:52.286Z,4.20
2023-02-18T21:07:18.996Z,4.20
2023-02-18T21:09:45.649Z,4.17
2023-02-18T21:12:14.521Z,4.21
2023-02-18T21:14:41.289Z,4.19
2023-02-18T21:17:09.534Z,4.15
2023-02-18T21:19:36.423Z,4.16
2023-02-18T21:22:03.107Z,4.13
2023-02-18T21:24:29.863Z,4.10
2023-02-18T21:26:56.608Z,4.14
2023-02-18T21:29:23.333Z,4.08
2023-02-18T21:31:50.113Z,4.13
2023-02-18T21:34:17.534Z,4.13
2023-02-18T21:36:44.307Z,4.19
2023-02-18T21:39:11.714Z,4.17
2023-02-18T21:41:41.014Z,4.15
2023-02-18T21:44:09.109Z,4.14
2023-02-18T21:46:36.878Z,4.14
2023-02-18T21:49:09.839Z,4.17
2023-02-18T21:51:56.751Z,4.14
2023-02-18T21:54:31.102Z,4.12
2023-02-18T21:56:59.259Z,4.15
2023-02-18T21:59:28.858Z,4.18
2023-02-18T22:01:57.401Z,4.16
2023-02-18T22:04:25.405Z,4.14
2023-02-18T22:06:53.863Z,4.17
2023-02-18T22:09:20.583Z,4.15
2023-02-18T22:11:47.284Z,4.14
2023-02-18T22:14:15.186Z,4.17
2023-02-18T22:16:41.980Z,4.16
2023-02-18T22:19:11.034Z,4.18
2023-02-18T22:21:37.746Z,4.15
2023-02-18T22:24:05.396Z,4.15
2023-02-18T22:26:32.218Z,4.22
2023-02-18T22:28:59.790Z,4.29
2023-02-18T22:31:29.123Z,4.32
2023-02-18T22:33:58.954Z,4.36
2023-02-18T22:36:27.689Z,4.34
2023-02-18T22:38:54.692Z,4.36
2023-02-18T22:41:23.389Z,4.28
2023-02-18T22:43:58.575Z,4.29
2023-02-18T22:46:26.505Z,4.33
2023-02-18T22:48:55.376Z,4.33
2023-02-18T22:51:27.639Z,4.36
2023-02-18T22:53:56.372Z,4.32
2023-02-18T22:56:24.788Z,4.30
2023-02-18T22:58:53.398Z,4.31
2023-02-18T23:01:34.831Z,4.38
2023-02-18T23:04:21.181Z,4.30
2023-02-18T23:06:48.805Z,4.29
2023-02-18T23:09:25.432Z,4.27
2023-02-18T23:11:53.874Z,4.24
2023-02-18T23:14:21.825Z,4.25
2023-02-18T23:17:13.262Z,4.23
2023-02-18T23:19:44.419Z,4.23
2023-02-18T23:22:12.956Z,4.21
2023-02-18T23:24:42.549Z,4.24
2023-02-18T23:27:11.670Z,4.30
2023-02-18T23:29:39.023Z,4.33
2023-02-18T23:32:06.586Z,4.35
2023-02-18T23:34:33.548Z,4.35
2023-02-18T23:37:00.436Z,4.39
2023-02-18T23:39:27.301Z,4.35
2023-02-18T23:41:53.973Z,4.42
2023-02-18T23:44:23.374Z,4.39
2023-02-18T23:46:50.440Z,4.40
2023-02-18T23:49:22.680Z,4.40
2023-02-18T23:51:50.958Z,4.39
2023-02-18T23:54:18.252Z,4.39
2023-02-18T23:56:45.081Z,4.38
2023-02-18T23:59:12.478Z,4.39
